SIN weather

Singapore Changi Airport
Singapore, South East, Singapore

Public forecast

Using degrees Celsius for public forecast. Weather courtesy of forecast.io.

METAR (pilot weather report)

Retrieved 2018/06/22 22:30 UTC (0 seconds ago):

WSSS 222230Z 17006KT 9999 FEW016 SCT018TCU BKN300 28/25 Q1009 NOSIG

TAF (pilot weather forecast)

Retrieved 2018/06/22 18:15 UTC (4 hours ago):

TAF WSSS 221700Z 2218/2400 18009KT 9999 FEW018CB SCT020 TEMPO 2305/2309 3000 TSRA FEW012CB BKN015